Arapongas, Brazil
Current Conditions -  °F | °C
As of 9:00 AM on Sunday 28 Dec 2014 (Local Time) from SBMO Reporting Station
Broken Clouds Broken Clouds  
Wind Chill: 79°   Ceiling: 2000
Heat Index: 81°   Visibility: 6mi
Dew Point: 70°   Wind: 9mph
Humidity: 74%   Direction: 110°ESE
Pressure: 30"   Gusts: NA
Location:  9.75°S, 36.65°W
Report Text: SBMO 281200Z 11008KT 9999 BKN020 26/21 Q1016
Loading
Personal Weather Stations






























Interactive Weather Map New forecast layout! Learn more

10-Day Weather Forecast

Advertisements
Track Severe Weather on mobile